Airfield :
LOGIN :

Register | Disclaimer

   EN    FR    IT 

 










Legend :    VFR   Marginal VFR   IFR   Intensive IFR   Very Intensive IFR
Visi :
Ceiling :
>= 8 km
>= 3000ft
5 to 8 km
1000 to 3000 ft
1500m to 5 km
500 to 1000 ft
800 to 1500m
200 to 500 ft
< 800m
< 200 ft
Symbols :   Thunderstorms  Fog  Heavy snow  Heavy precipitations  Wind > 20 kt
SIGMETs :     Misc.  Thunderstorms  Icing  Turbulence  Mountain Waves  Volcanic Ashes






- Airport Elevation : 257 ft
- IATA code : MAN


EGCC - Manchester

CURRENT METAR :
  • 211720Z AUTO 09003KT 040V150 9999 NCD 18/11 Q1009

EXPIRED METARs :
  • 211650Z AUTO 08004KT 9999 FEW040 18/11 Q1009 NOSIG
  • 211620Z AUTO 09003KT 9999 BKN035 18/11 Q1009
  • 211550Z AUTO 09003KT 050V120 9999 BKN033 18/11 Q1009
  • 211520Z AUTO VRB02KT 9999 BKN038 BKN046 19/10 Q1009 NOSIG
  • 211450Z AUTO VRB02KT 9999 NCD 19/11 Q1010 NOSIG
  • 211420Z AUTO VRB02KT 9999 FEW035 BKN043 19/11 Q1010
  • 211350Z AUTO 11003KT 050V170 9999 SCT036 BKN045 19/10 Q1010
  • 211320Z AUTO 06003KT 350V100 9999 BKN040 BKN047 18/10 Q1010
  • 211250Z AUTO 30003KT 230V350 9999 BKN036 19/10 Q1010
  • 211220Z AUTO 36004KT 310V050 9999 FEW035 19/10 Q1010

TAF TAF EGCC
Valid from the 21 at 18:00 until the 23 at 00:00 UTC


211706Z 2118/2224 07004KT 9999 SCT040
TEMPO 2118/2121 7000 SHRA
PROB30
TEMPO 2118/2121 4000 +SHRA BKN014 BKN040CB
TEMPO 2121/2224 7000 RA
PROB30
TEMPO 2200/2204 BKN010
PROB30
TEMPO 2204/2221 3000 +RA RADZ BKN006
BECMG 2207/2210 30010KT
PROB30
TEMPO 2221/2224 26015G26KT 3000 +RA RADZ BKN004
ATIS : +44 161 499 2324



MET'MAP, your aeronautical weather chart ! - Copyright ORBIFLY December 2007 - Disclaimer

ORBIFLY MET'MAP TEAM :

Programming & Development : Alexandra Zaïnal
Original concept : Baudouin d'Aumeries
Technical & hardware support : Manuel Goepfert
Assistance : Marc-Olivier Méhu




SOURCES & CREDITS :

   NOAA